sensor_id;sensor_type;location;lat;lon;timestamp;pressure;altitude;pressure_sealevel;temperature;humidity
28027;BME280;15344;52.342;-1.290;2023-06-26T00:00:51;100151.39;;;19.79;56.31
28027;BME280;15344;52.342;-1.290;2023-06-26T00:03:16;100151.83;;;19.39;58.11
28027;BME280;15344;52.342;-1.290;2023-06-26T00:05:42;100155.92;;;20.57;55.70
28027;BME280;15344;52.342;-1.290;2023-06-26T00:08:07;100155.58;;;19.60;56.98
28027;BME280;15344;52.342;-1.290;2023-06-26T00:10:32;100159.66;;;20.78;55.13
28027;BME280;15344;52.342;-1.290;2023-06-26T00:12:57;100162.66;;;20.91;54.09
28027;BME280;15344;52.342;-1.290;2023-06-26T00:15:22;100161.94;;;21.24;53.33
28027;BME280;15344;52.342;-1.290;2023-06-26T00:17:47;100154.07;;;20.05;55.73
28027;BME280;15344;52.342;-1.290;2023-06-26T00:20:12;100156.14;;;21.07;54.91
28027;BME280;15344;52.342;-1.290;2023-06-26T00:22:38;100153.83;;;20.92;53.47
28027;BME280;15344;52.342;-1.290;2023-06-26T00:25:03;100150.62;;;20.24;55.35
28027;BME280;15344;52.342;-1.290;2023-06-26T00:27:28;100149.14;;;20.62;55.10
28027;BME280;15344;52.342;-1.290;2023-06-26T00:29:53;100149.35;;;20.15;56.07
28027;BME280;15344;52.342;-1.290;2023-06-26T00:32:18;100148.47;;;20.65;54.83
28027;BME280;15344;52.342;-1.290;2023-06-26T00:34:43;100153.25;;;20.45;55.55
28027;BME280;15344;52.342;-1.290;2023-06-26T00:37:09;100150.82;;;20.16;56.76
28027;BME280;15344;52.342;-1.290;2023-06-26T00:39:34;100158.76;;;20.61;55.56
28027;BME280;15344;52.342;-1.290;2023-06-26T00:41:59;100159.02;;;19.55;57.25
28027;BME280;15344;52.342;-1.290;2023-06-26T00:44:24;100161.22;;;19.85;58.15
28027;BME280;15344;52.342;-1.290;2023-06-26T00:46:49;100157.86;;;19.92;57.14
28027;BME280;15344;52.342;-1.290;2023-06-26T00:49:15;100161.08;;;19.47;58.08
28027;BME280;15344;52.342;-1.290;2023-06-26T00:51:40;100166.36;;;19.52;58.87
28027;BME280;15344;52.342;-1.290;2023-06-26T00:54:05;100166.05;;;20.64;56.45
28027;BME280;15344;52.342;-1.290;2023-06-26T00:56:31;100170.45;;;20.86;56.56
28027;BME280;15344;52.342;-1.290;2023-06-26T00:58:56;100170.88;;;20.58;57.17
28027;BME280;15344;52.342;-1.290;2023-06-26T01:01:21;100172.89;;;20.28;57.01
28027;BME280;15344;52.342;-1.290;2023-06-26T01:03:49;100171.94;;;20.15;55.97
28027;BME280;15344;52.342;-1.290;2023-06-26T01:06:13;100164.50;;;19.77;57.44
28027;BME280;15344;52.342;-1.290;2023-06-26T01:08:36;100163.36;;;19.57;58.13
28027;BME280;15344;52.342;-1.290;2023-06-26T01:11:01;100166.27;;;19.89;58.28
28027;BME280;15344;52.342;-1.290;2023-06-26T01:13:29;100174.07;;;20.27;57.02
28027;BME280;15344;52.342;-1.290;2023-06-26T01:15:52;100175.77;;;20.31;56.67
28027;BME280;15344;52.342;-1.290;2023-06-26T01:18:17;100183.42;;;20.79;56.90
28027;BME280;15344;52.342;-1.290;2023-06-26T01:20:43;100182.97;;;21.00;56.76
28027;BME280;15344;52.342;-1.290;2023-06-26T01:23:15;100179.78;;;20.56;57.12
28027;BME280;15344;52.342;-1.290;2023-06-26T01:25:39;100178.95;;;20.64;57.26
28027;BME280;15344;52.342;-1.290;2023-06-26T01:27:58;100179.78;;;19.51;60.40
28027;BME280;15344;52.342;-1.290;2023-06-26T01:30:23;100179.50;;;19.65;60.02
28027;BME280;15344;52.342;-1.290;2023-06-26T01:32:49;100177.27;;;19.93;60.91
28027;BME280;15344;52.342;-1.290;2023-06-26T01:35:13;100173.03;;;20.14;59.07
28027;BME280;15344;52.342;-1.290;2023-06-26T01:37:38;100185.76;;;19.43;62.45
28027;BME280;15344;52.342;-1.290;2023-06-26T01:40:04;100190.48;;;18.96;63.46
28027;BME280;15344;52.342;-1.290;2023-06-26T01:42:29;100186.96;;;19.82;62.70
28027;BME280;15344;52.342;-1.290;2023-06-26T01:44:55;100184.86;;;18.88;65.21
28027;BME280;15344;52.342;-1.290;2023-06-26T01:47:21;100187.08;;;19.43;64.77
28027;BME280;15344;52.342;-1.290;2023-06-26T01:49:47;100189.32;;;19.13;65.80
28027;BME280;15344;52.342;-1.290;2023-06-26T01:52:16;100191.34;;;19.16;66.30
28027;BME280;15344;52.342;-1.290;2023-06-26T01:54:39;100193.27;;;19.18;67.50
28027;BME280;15344;52.342;-1.290;2023-06-26T01:57:00;100195.01;;;19.35;66.43
28027;BME280;15344;52.342;-1.290;2023-06-26T01:59:26;100194.58;;;19.22;67.25
28027;BME280;15344;52.342;-1.290;2023-06-26T02:01:51;100196.54;;;19.57;66.35
28027;BME280;15344;52.342;-1.290;2023-06-26T02:04:15;100196.19;;;18.75;68.78
28027;BME280;15344;52.342;-1.290;2023-06-26T02:06:40;100196.15;;;19.70;65.86
28027;BME280;15344;52.342;-1.290;2023-06-26T02:09:05;100192.73;;;19.10;68.35
28027;BME280;15344;52.342;-1.290;2023-06-26T02:11:31;100192.52;;;19.19;67.48
28027;BME280;15344;52.342;-1.290;2023-06-26T02:13:56;100193.52;;;18.86;68.73
28027;BME280;15344;52.342;-1.290;2023-06-26T02:16:21;100196.03;;;18.57;68.25
28027;BME280;15344;52.342;-1.290;2023-06-26T02:18:46;100201.14;;;19.00;68.64
28027;BME280;15344;52.342;-1.290;2023-06-26T02:21:12;100202.13;;;18.43;70.75
28027;BME280;15344;52.342;-1.290;2023-06-26T02:23:37;100200.39;;;18.81;69.40
28027;BME280;15344;52.342;-1.290;2023-06-26T02:26:02;100199.14;;;19.41;67.86
28027;BME280;15344;52.342;-1.290;2023-06-26T02:28:27;100198.93;;;18.78;69.99
28027;BME280;15344;52.342;-1.290;2023-06-26T02:30:52;100199.54;;;19.49;67.57
28027;BME280;15344;52.342;-1.290;2023-06-26T02:33:17;100198.35;;;19.52;68.38
28027;BME280;15344;52.342;-1.290;2023-06-26T02:35:43;100200.40;;;19.25;68.70
28027;BME280;15344;52.342;-1.290;2023-06-26T02:38:08;100198.97;;;19.45;67.03
28027;BME280;15344;52.342;-1.290;2023-06-26T02:40:33;100201.89;;;19.91;67.06
28027;BME280;15344;52.342;-1.290;2023-06-26T02:42:58;100203.01;;;19.98;65.88
28027;BME280;15344;52.342;-1.290;2023-06-26T02:45:24;100204.23;;;19.39;65.78
28027;BME280;15344;52.342;-1.290;2023-06-26T02:47:49;100206.31;;;19.34;67.61
28027;BME280;15344;52.342;-1.290;2023-06-26T02:50:14;100209.82;;;19.45;68.06
28027;BME280;15344;52.342;-1.290;2023-06-26T02:52:39;100209.32;;;19.54;66.18
28027;BME280;15344;52.342;-1.290;2023-06-26T02:55:05;100211.20;;;19.68;65.35
28027;BME280;15344;52.342;-1.290;2023-06-26T02:57:30;100213.03;;;20.07;63.71
28027;BME280;15344;52.342;-1.290;2023-06-26T02:59:55;100213.87;;;20.29;64.79
28027;BME280;15344;52.342;-1.290;2023-06-26T03:02:20;100214.64;;;20.36;64.73
28027;BME280;15344;52.342;-1.290;2023-06-26T03:04:45;100216.17;;;20.05;63.71
28027;BME280;15344;52.342;-1.290;2023-06-26T03:07:10;100215.98;;;20.15;64.65
28027;BME280;15344;52.342;-1.290;2023-06-26T03:09:35;100220.38;;;19.82;64.86
28027;BME280;15344;52.342;-1.290;2023-06-26T03:12:01;100219.07;;;19.97;65.95
28027;BME280;15344;52.342;-1.290;2023-06-26T03:14:27;100223.20;;;19.68;65.86
28027;BME280;15344;52.342;-1.290;2023-06-26T03:16:53;100221.73;;;20.05;65.66
28027;BME280;15344;52.342;-1.290;2023-06-26T03:19:18;100224.17;;;19.72;64.60
28027;BME280;15344;52.342;-1.290;2023-06-26T03:21:43;100223.10;;;19.93;65.35
28027;BME280;15344;52.342;-1.290;2023-06-26T03:24:08;100233.60;;;19.82;65.45
28027;BME280;15344;52.342;-1.290;2023-06-26T03:26:33;100234.08;;;19.26;65.68
28027;BME280;15344;52.342;-1.290;2023-06-26T03:28:58;100236.41;;;19.19;66.91
28027;BME280;15344;52.342;-1.290;2023-06-26T03:31:24;100232.49;;;19.76;65.21
28027;BME280;15344;52.342;-1.290;2023-06-26T03:33:49;100239.09;;;19.68;65.74
28027;BME280;15344;52.342;-1.290;2023-06-26T03:36:14;100239.50;;;19.13;68.97
28027;BME280;15344;52.342;-1.290;2023-06-26T03:38:39;100239.60;;;19.41;67.92
28027;BME280;15344;52.342;-1.290;2023-06-26T03:41:04;100242.32;;;19.48;67.45
28027;BME280;15344;52.342;-1.290;2023-06-26T03:43:30;100246.93;;;19.02;68.89
28027;BME280;15344;52.342;-1.290;2023-06-26T03:45:55;100253.09;;;19.08;69.57
28027;BME280;15344;52.342;-1.290;2023-06-26T03:48:20;100257.07;;;19.05;69.55
28027;BME280;15344;52.342;-1.290;2023-06-26T03:50:45;100264.20;;;19.46;68.40
28027;BME280;15344;52.342;-1.290;2023-06-26T03:53:10;100269.38;;;18.78;70.82
28027;BME280;15344;52.342;-1.290;2023-06-26T03:55:37;100272.20;;;18.67;72.25
28027;BME280;15344;52.342;-1.290;2023-06-26T03:58:01;100279.15;;;18.80;73.77
28027;BME280;15344;52.342;-1.290;2023-06-26T04:00:26;100282.84;;;18.99;71.21
28027;BME280;15344;52.342;-1.290;2023-06-26T04:02:51;100285.87;;;19.20;70.98
28027;BME280;15344;52.342;-1.290;2023-06-26T04:05:16;100282.81;;;18.70;72.28
28027;BME280;15344;52.342;-1.290;2023-06-26T04:07:42;100285.08;;;18.90;72.12
28027;BME280;15344;52.342;-1.290;2023-06-26T04:10:08;100290.90;;;19.23;70.76
28027;BME280;15344;52.342;-1.290;2023-06-26T04:12:32;100293.97;;;18.88;70.78
28027;BME280;15344;52.342;-1.290;2023-06-26T04:14:57;100296.51;;;18.50;73.10
28027;BME280;15344;52.342;-1.290;2023-06-26T04:17:22;100299.42;;;18.04;76.37
28027;BME280;15344;52.342;-1.290;2023-06-26T04:19:48;100297.90;;;18.86;72.52
28027;BME280;15344;52.342;-1.290;2023-06-26T04:22:13;100306.33;;;18.38;73.99
28027;BME280;15344;52.342;-1.290;2023-06-26T04:24:38;100305.72;;;18.49;75.05
28027;BME280;15344;52.342;-1.290;2023-06-26T04:27:04;100299.57;;;19.26;72.26
28027;BME280;15344;52.342;-1.290;2023-06-26T04:29:29;100301.79;;;19.27;70.72
28027;BME280;15344;52.342;-1.290;2023-06-26T04:31:54;100300.76;;;18.91;72.59
28027;BME280;15344;52.342;-1.290;2023-06-26T04:34:19;100300.65;;;18.96;73.20
28027;BME280;15344;52.342;-1.290;2023-06-26T04:36:44;100312.25;;;18.37;76.42
28027;BME280;15344;52.342;-1.290;2023-06-26T04:39:10;100310.74;;;19.39;72.18
28027;BME280;15344;52.342;-1.290;2023-06-26T04:41:35;100308.69;;;19.53;71.98
28027;BME280;15344;52.342;-1.290;2023-06-26T04:44:00;100310.48;;;18.77;74.29
28027;BME280;15344;52.342;-1.290;2023-06-26T04:46:25;100310.41;;;18.71;75.95
28027;BME280;15344;52.342;-1.290;2023-06-26T04:48:50;100312.00;;;18.68;76.08
28027;BME280;15344;52.342;-1.290;2023-06-26T04:51:16;100305.52;;;18.86;75.25
28027;BME280;15344;52.342;-1.290;2023-06-26T04:53:42;100311.23;;;18.57;74.54
28027;BME280;15344;52.342;-1.290;2023-06-26T04:56:07;100316.67;;;19.48;73.23
28027;BME280;15344;52.342;-1.290;2023-06-26T04:58:32;100312.75;;;18.89;75.39
28027;BME280;15344;52.342;-1.290;2023-06-26T05:00:57;100317.15;;;19.58;73.00
28027;BME280;15344;52.342;-1.290;2023-06-26T05:03:23;100320.37;;;19.23;73.52
28027;BME280;15344;52.342;-1.290;2023-06-26T05:05:48;100327.79;;;19.99;71.50
28027;BME280;15344;52.342;-1.290;2023-06-26T05:08:15;100329.51;;;19.31;73.33
28027;BME280;15344;52.342;-1.290;2023-06-26T05:10:39;100332.11;;;19.12;73.91
28027;BME280;15344;52.342;-1.290;2023-06-26T05:13:05;100338.99;;;19.55;72.53
28027;BME280;15344;52.342;-1.290;2023-06-26T05:15:30;100337.72;;;20.02;71.70
28027;BME280;15344;52.342;-1.290;2023-06-26T05:17:55;100339.81;;;19.75;72.92
28027;BME280;15344;52.342;-1.290;2023-06-26T05:20:20;100342.98;;;19.30;73.99
28027;BME280;15344;52.342;-1.290;2023-06-26T05:22:45;100344.59;;;19.50;73.84
28027;BME280;15344;52.342;-1.290;2023-06-26T05:25:11;100347.38;;;19.32;73.33
28027;BME280;15344;52.342;-1.290;2023-06-26T05:27:36;100351.64;;;19.71;73.03
28027;BME280;15344;52.342;-1.290;2023-06-26T05:30:01;100348.23;;;20.05;72.21
28027;BME280;15344;52.342;-1.290;2023-06-26T05:32:26;100350.73;;;19.95;71.93
28027;BME280;15344;52.342;-1.290;2023-06-26T05:34:51;100357.44;;;20.26;71.76
28027;BME280;15344;52.342;-1.290;2023-06-26T05:37:20;100361.67;;;19.68;72.45
28027;BME280;15344;52.342;-1.290;2023-06-26T05:39:43;100371.71;;;19.49;73.23
28027;BME280;15344;52.342;-1.290;2023-06-26T05:42:09;100370.21;;;19.70;72.85
28027;BME280;15344;52.342;-1.290;2023-06-26T05:44:33;100376.06;;;19.78;72.44
28027;BME280;15344;52.342;-1.290;2023-06-26T05:46:58;100376.35;;;19.55;73.50
28027;BME280;15344;52.342;-1.290;2023-06-26T05:49:23;100377.57;;;19.81;73.35
28027;BME280;15344;52.342;-1.290;2023-06-26T05:51:49;100381.22;;;19.78;72.87
28027;BME280;15344;52.342;-1.290;2023-06-26T05:54:14;100381.89;;;19.76;72.42
28027;BME280;15344;52.342;-1.290;2023-06-26T05:56:39;100380.86;;;19.80;75.64
28027;BME280;15344;52.342;-1.290;2023-06-26T05:59:04;100382.53;;;19.29;76.23
28027;BME280;15344;52.342;-1.290;2023-06-26T06:01:29;100384.38;;;19.23;77.38
28027;BME280;15344;52.342;-1.290;2023-06-26T06:03:54;100388.47;;;19.70;77.30
28027;BME280;15344;52.342;-1.290;2023-06-26T06:06:19;100397.77;;;19.67;75.51
28027;BME280;15344;52.342;-1.290;2023-06-26T06:08:44;100396.12;;;19.18;77.08
28027;BME280;15344;52.342;-1.290;2023-06-26T06:11:10;100403.06;;;19.89;74.06
28027;BME280;15344;52.342;-1.290;2023-06-26T06:13:35;100406.60;;;20.38;73.53
28027;BME280;15344;52.342;-1.290;2023-06-26T06:16:00;100411.00;;;20.37;71.57
28027;BME280;15344;52.342;-1.290;2023-06-26T06:18:25;100405.72;;;19.63;75.88
28027;BME280;15344;52.342;-1.290;2023-06-26T06:20:50;100409.29;;;19.82;74.97
28027;BME280;15344;52.342;-1.290;2023-06-26T06:23:15;100410.35;;;19.84;74.98
28027;BME280;15344;52.342;-1.290;2023-06-26T06:25:40;100405.90;;;20.18;72.94
28027;BME280;15344;52.342;-1.290;2023-06-26T06:28:06;100405.13;;;20.03;73.90
28027;BME280;15344;52.342;-1.290;2023-06-26T06:30:31;100406.82;;;20.61;75.36
28027;BME280;15344;52.342;-1.290;2023-06-26T06:32:57;100402.88;;;19.69;78.14
28027;BME280;15344;52.342;-1.290;2023-06-26T06:35:21;100405.21;;;19.92;78.50
28027;BME280;15344;52.342;-1.290;2023-06-26T06:37:46;100405.27;;;21.34;76.23
28027;BME280;15344;52.342;-1.290;2023-06-26T06:40:12;100410.95;;;20.25;74.65
28027;BME280;15344;52.342;-1.290;2023-06-26T06:42:37;100407.09;;;21.24;72.15
28027;BME280;15344;52.342;-1.290;2023-06-26T06:45:02;100418.89;;;22.24;67.47
28027;BME280;15344;52.342;-1.290;2023-06-26T06:47:27;100422.52;;;23.07;65.58
28027;BME280;15344;52.342;-1.290;2023-06-26T06:49:52;100427.15;;;24.06;60.75
28027;BME280;15344;52.342;-1.290;2023-06-26T06:52:17;100441.20;;;25.12;59.45
28027;BME280;15344;52.342;-1.290;2023-06-26T06:57:08;100434.64;;;24.28;52.82
28027;BME280;15344;52.342;-1.290;2023-06-26T06:59:34;100437.22;;;24.94;53.48
28027;BME280;15344;52.342;-1.290;2023-06-26T07:01:59;100446.97;;;25.96;52.14
28027;BME280;15344;52.342;-1.290;2023-06-26T07:04:25;100450.76;;;25.51;52.21
28027;BME280;15344;52.342;-1.290;2023-06-26T07:06:51;100460.59;;;27.50;46.56
28027;BME280;15344;52.342;-1.290;2023-06-26T07:09:17;100458.34;;;27.27;45.99
28027;BME280;15344;52.342;-1.290;2023-06-26T07:11:43;100454.87;;;28.07;45.20
28027;BME280;15344;52.342;-1.290;2023-06-26T07:14:08;100451.48;;;28.16;44.63
28027;BME280;15344;52.342;-1.290;2023-06-26T07:16:34;100454.55;;;27.80;42.44
28027;BME280;15344;52.342;-1.290;2023-06-26T07:19:00;100458.31;;;27.59;43.04
28027;BME280;15344;52.342;-1.290;2023-06-26T07:21:25;100453.85;;;28.75;42.80
28027;BME280;15344;52.342;-1.290;2023-06-26T07:23:51;100453.08;;;28.55;41.93
28027;BME280;15344;52.342;-1.290;2023-06-26T07:26:17;100453.58;;;28.80;41.46
28027;BME280;15344;52.342;-1.290;2023-06-26T07:28:43;100449.22;;;28.46;40.37
28027;BME280;15344;52.342;-1.290;2023-06-26T07:31:08;100452.52;;;29.04;41.00
28027;BME280;15344;52.342;-1.290;2023-06-26T07:33:34;100455.10;;;28.67;41.48
28027;BME280;15344;52.342;-1.290;2023-06-26T07:36:00;100456.51;;;28.98;39.75
28027;BME280;15344;52.342;-1.290;2023-06-26T07:38:25;100461.72;;;28.70;39.30
28027;BME280;15344;52.342;-1.290;2023-06-26T07:40:51;100467.29;;;30.18;37.35
28027;BME280;15344;52.342;-1.290;2023-06-26T07:43:17;100467.84;;;29.65;38.74
28027;BME280;15344;52.342;-1.290;2023-06-26T07:45:42;100468.68;;;29.97;39.02
28027;BME280;15344;52.342;-1.290;2023-06-26T07:48:08;100463.91;;;29.93;39.19
28027;BME280;15344;52.342;-1.290;2023-06-26T07:50:34;100463.32;;;29.65;39.41
28027;BME280;15344;52.342;-1.290;2023-06-26T07:52:59;100470.92;;;30.16;37.67
28027;BME280;15344;52.342;-1.290;2023-06-26T07:55:25;100475.58;;;29.85;37.81
28027;BME280;15344;52.342;-1.290;2023-06-26T07:57:51;100482.73;;;30.07;37.93
28027;BME280;15344;52.342;-1.290;2023-06-26T08:00:17;100478.99;;;29.23;37.84
28027;BME280;15344;52.342;-1.290;2023-06-26T08:02:42;100479.79;;;26.86;39.48
28027;BME280;15344;52.342;-1.290;2023-06-26T08:05:08;100478.78;;;28.56;38.92
28027;BME280;15344;52.342;-1.290;2023-06-26T08:07:33;100476.38;;;28.77;37.16
28027;BME280;15344;52.342;-1.290;2023-06-26T08:09:59;100480.55;;;28.74;39.23
28027;BME280;15344;52.342;-1.290;2023-06-26T08:12:25;100478.50;;;28.16;38.86
28027;BME280;15344;52.342;-1.290;2023-06-26T08:14:50;100486.18;;;28.06;38.38
28027;BME280;15344;52.342;-1.290;2023-06-26T08:17:16;100495.25;;;27.36;38.39
28027;BME280;15344;52.342;-1.290;2023-06-26T08:19:42;100500.94;;;27.51;38.03
28027;BME280;15344;52.342;-1.290;2023-06-26T08:22:07;100498.70;;;27.55;40.96
28027;BME280;15344;52.342;-1.290;2023-06-26T08:24:33;100495.91;;;27.65;39.54
28027;BME280;15344;52.342;-1.290;2023-06-26T08:26:59;100493.36;;;27.39;38.89
28027;BME280;15344;52.342;-1.290;2023-06-26T08:29:24;100485.68;;;28.06;36.92
28027;BME280;15344;52.342;-1.290;2023-06-26T08:31:50;100485.60;;;27.80;37.99
28027;BME280;15344;52.342;-1.290;2023-06-26T08:34:16;100489.79;;;27.59;36.68
28027;BME280;15344;52.342;-1.290;2023-06-26T08:36:42;100494.66;;;26.89;36.32
28027;BME280;15344;52.342;-1.290;2023-06-26T08:39:07;100496.75;;;27.27;38.42
28027;BME280;15344;52.342;-1.290;2023-06-26T08:41:33;100491.65;;;27.86;37.70
28027;BME280;15344;52.342;-1.290;2023-06-26T08:43:59;100491.62;;;28.23;36.23
28027;BME280;15344;52.342;-1.290;2023-06-26T08:46:25;100503.32;;;27.13;36.08
28027;BME280;15344;52.342;-1.290;2023-06-26T08:48:55;100506.95;;;27.46;36.81
28027;BME280;15344;52.342;-1.290;2023-06-26T08:51:17;100499.45;;;26.57;36.91
28027;BME280;15344;52.342;-1.290;2023-06-26T08:53:48;100501.42;;;26.71;36.29
28027;BME280;15344;52.342;-1.290;2023-06-26T08:56:09;100502.00;;;26.12;37.16
28027;BME280;15344;52.342;-1.290;2023-06-26T08:58:33;100508.95;;;26.47;36.52
28027;BME280;15344;52.342;-1.290;2023-06-26T09:00:59;100508.60;;;27.53;35.87
28027;BME280;15344;52.342;-1.290;2023-06-26T09:03:25;100512.88;;;27.44;35.86
28027;BME280;15344;52.342;-1.290;2023-06-26T09:05:50;100514.73;;;27.89;37.27
28027;BME280;15344;52.342;-1.290;2023-06-26T09:08:16;100517.75;;;27.41;36.07
28027;BME280;15344;52.342;-1.290;2023-06-26T09:10:42;100514.46;;;27.59;36.24
28027;BME280;15344;52.342;-1.290;2023-06-26T09:13:08;100514.58;;;27.94;35.04
28027;BME280;15344;52.342;-1.290;2023-06-26T09:15:39;100517.63;;;27.55;35.50
28027;BME280;15344;52.342;-1.290;2023-06-26T09:17:59;100523.93;;;27.55;35.48
28027;BME280;15344;52.342;-1.290;2023-06-26T09:20:28;100522.86;;;27.21;35.53
28027;BME280;15344;52.342;-1.290;2023-06-26T09:22:51;100529.31;;;28.39;37.04
28027;BME280;15344;52.342;-1.290;2023-06-26T09:25:17;100525.89;;;28.43;37.12
28027;BME280;15344;52.342;-1.290;2023-06-26T09:27:43;100516.87;;;28.37;34.98
28027;BME280;15344;52.342;-1.290;2023-06-26T09:30:08;100525.78;;;29.94;34.66
28027;BME280;15344;52.342;-1.290;2023-06-26T09:32:34;100519.05;;;29.20;33.57
28027;BME280;15344;52.342;-1.290;2023-06-26T09:34:59;100518.76;;;29.80;36.26
28027;BME280;15344;52.342;-1.290;2023-06-26T09:37:24;100518.63;;;28.96;36.37
28027;BME280;15344;52.342;-1.290;2023-06-26T09:39:51;100528.46;;;28.07;34.83
28027;BME280;15344;52.342;-1.290;2023-06-26T09:42:16;100526.89;;;28.14;35.66
28027;BME280;15344;52.342;-1.290;2023-06-26T09:44:44;100528.34;;;28.08;33.68
28027;BME280;15344;52.342;-1.290;2023-06-26T09:47:07;100536.66;;;27.43;35.67
28027;BME280;15344;52.342;-1.290;2023-06-26T09:49:33;100537.58;;;26.96;35.43
28027;BME280;15344;52.342;-1.290;2023-06-26T09:52:00;100540.89;;;27.11;35.60
28027;BME280;15344;52.342;-1.290;2023-06-26T09:54:24;100537.93;;;26.44;36.41
28027;BME280;15344;52.342;-1.290;2023-06-26T09:56:50;100539.91;;;26.75;37.64
28027;BME280;15344;52.342;-1.290;2023-06-26T09:59:16;100539.66;;;26.84;37.43
28027;BME280;15344;52.342;-1.290;2023-06-26T10:01:45;100534.62;;;26.98;36.21
28027;BME280;15344;52.342;-1.290;2023-06-26T10:04:08;100549.61;;;26.19;39.04
28027;BME280;15344;52.342;-1.290;2023-06-26T10:06:35;100556.66;;;28.36;35.46
28027;BME280;15344;52.342;-1.290;2023-06-26T10:09:00;100555.83;;;29.03;35.74
28027;BME280;15344;52.342;-1.290;2023-06-26T10:11:26;100556.94;;;28.70;35.36
28027;BME280;15344;52.342;-1.290;2023-06-26T10:13:51;100557.03;;;30.33;33.92
28027;BME280;15344;52.342;-1.290;2023-06-26T10:16:22;100549.26;;;29.07;33.89
28027;BME280;15344;52.342;-1.290;2023-06-26T10:18:43;100554.94;;;28.93;33.84
28027;BME280;15344;52.342;-1.290;2023-06-26T10:21:08;100551.40;;;28.85;32.29
28027;BME280;15344;52.342;-1.290;2023-06-26T10:23:35;100552.16;;;29.21;33.92
28027;BME280;15344;52.342;-1.290;2023-06-26T10:26:00;100555.15;;;29.16;34.32
28027;BME280;15344;52.342;-1.290;2023-06-26T10:28:27;100562.29;;;27.98;34.58
28027;BME280;15344;52.342;-1.290;2023-06-26T10:30:51;100555.70;;;29.73;35.44
28027;BME280;15344;52.342;-1.290;2023-06-26T10:33:16;100565.46;;;30.12;35.62
28027;BME280;15344;52.342;-1.290;2023-06-26T10:35:43;100557.95;;;29.58;34.79
28027;BME280;15344;52.342;-1.290;2023-06-26T10:38:07;100560.28;;;28.66;34.19
28027;BME280;15344;52.342;-1.290;2023-06-26T10:40:41;100564.01;;;28.09;34.40
28027;BME280;15344;52.342;-1.290;2023-06-26T10:43:06;100567.32;;;28.93;35.34
28027;BME280;15344;52.342;-1.290;2023-06-26T10:45:28;100571.81;;;29.49;33.11
28027;BME280;15344;52.342;-1.290;2023-06-26T10:47:52;100565.09;;;28.84;32.85
28027;BME280;15344;52.342;-1.290;2023-06-26T10:50:18;100565.74;;;29.57;34.58
28027;BME280;15344;52.342;-1.290;2023-06-26T10:52:41;100569.54;;;29.66;32.38
28027;BME280;15344;52.342;-1.290;2023-06-26T10:55:08;100568.94;;;29.55;32.61
28027;BME280;15344;52.342;-1.290;2023-06-26T10:57:36;100566.83;;;28.08;34.30
28027;BME280;15344;52.342;-1.290;2023-06-26T11:02:26;100576.71;;;27.25;35.68
28027;BME280;15344;52.342;-1.290;2023-06-26T11:04:50;100575.66;;;27.55;36.38
28027;BME280;15344;52.342;-1.290;2023-06-26T11:07:18;100573.61;;;27.21;36.57
28027;BME280;15344;52.342;-1.290;2023-06-26T11:12:07;100570.21;;;26.29;35.95
28027;BME280;15344;52.342;-1.290;2023-06-26T11:14:33;100580.42;;;27.38;37.24
28027;BME280;15344;52.342;-1.290;2023-06-26T11:16:59;100576.28;;;27.19;37.05
28027;BME280;15344;52.342;-1.290;2023-06-26T11:19:27;100575.54;;;27.63;37.46
28027;BME280;15344;52.342;-1.290;2023-06-26T11:21:50;100576.89;;;26.56;38.38
28027;BME280;15344;52.342;-1.290;2023-06-26T11:24:16;100579.78;;;27.20;36.99
28027;BME280;15344;52.342;-1.290;2023-06-26T11:26:43;100572.04;;;26.98;38.84
28027;BME280;15344;52.342;-1.290;2023-06-26T11:29:08;100568.18;;;26.92;38.77
28027;BME280;15344;52.342;-1.290;2023-06-26T11:31:35;100573.17;;;27.57;37.09
28027;BME280;15344;52.342;-1.290;2023-06-26T11:34:02;100579.61;;;28.01;39.91
28027;BME280;15344;52.342;-1.290;2023-06-26T11:36:25;100580.02;;;27.76;34.31
28027;BME280;15344;52.342;-1.290;2023-06-26T11:38:53;100583.23;;;27.81;39.21
28027;BME280;15344;52.342;-1.290;2023-06-26T11:41:17;100583.61;;;28.04;37.78
28027;BME280;15344;52.342;-1.290;2023-06-26T11:43:42;100587.89;;;27.41;37.12
28027;BME280;15344;52.342;-1.290;2023-06-26T11:46:08;100588.85;;;28.44;35.87
28027;BME280;15344;52.342;-1.290;2023-06-26T11:48:33;100586.83;;;27.99;36.75
28027;BME280;15344;52.342;-1.290;2023-06-26T11:50:59;100589.29;;;28.85;36.88
28027;BME280;15344;52.342;-1.290;2023-06-26T11:53:25;100595.48;;;28.99;36.67
28027;BME280;15344;52.342;-1.290;2023-06-26T11:55:50;100586.19;;;28.03;35.67
28027;BME280;15344;52.342;-1.290;2023-06-26T11:58:16;100589.56;;;27.90;35.53
28027;BME280;15344;52.342;-1.290;2023-06-26T12:00:42;100583.44;;;27.29;35.97
28027;BME280;15344;52.342;-1.290;2023-06-26T12:03:08;100584.94;;;27.36;35.91
28027;BME280;15344;52.342;-1.290;2023-06-26T12:05:33;100585.23;;;27.26;37.45
28027;BME280;15344;52.342;-1.290;2023-06-26T12:08:00;100583.74;;;27.08;36.99
28027;BME280;15344;52.342;-1.290;2023-06-26T12:10:26;100591.23;;;28.04;34.39
28027;BME280;15344;52.342;-1.290;2023-06-26T12:12:51;100596.09;;;26.96;33.99
28027;BME280;15344;52.342;-1.290;2023-06-26T12:15:17;100591.75;;;26.62;33.13
28027;BME280;15344;52.342;-1.290;2023-06-26T12:17:43;100593.19;;;26.81;33.55
28027;BME280;15344;52.342;-1.290;2023-06-26T12:22:34;100591.01;;;26.53;35.34
28027;BME280;15344;52.342;-1.290;2023-06-26T12:25:00;100593.41;;;26.55;35.31
28027;BME280;15344;52.342;-1.290;2023-06-26T12:27:25;100594.82;;;27.66;36.05
28027;BME280;15344;52.342;-1.290;2023-06-26T12:29:52;100590.90;;;26.44;34.65
28027;BME280;15344;52.342;-1.290;2023-06-26T12:32:17;100589.80;;;27.16;34.49
28027;BME280;15344;52.342;-1.290;2023-06-26T12:34:48;100600.50;;;27.31;34.97
28027;BME280;15344;52.342;-1.290;2023-06-26T12:37:10;100598.90;;;27.69;36.01
28027;BME280;15344;52.342;-1.290;2023-06-26T12:42:01;100598.28;;;26.46;34.09